Terminal Aerodrome Forecast
Issued by NWS St Louis, MO

Home | Current Version | Previous Version | Graphics & Text | Print | Product List | Glossary On
Versions: 1 2 3 4 5 6 7 8 9 10 11 12 13 14 15 16 17 18 19 20 21 22 23 24 25 26 27 28 29 30 31 32
731
FTUS43 KLSX 162215 AAB
TAFSTL
TAF AMD
KSTL 162215Z 1622/1724 14015KT 2SM -TSRA BR OVC005CB
     FM170000 14015KT 3SM -SHRA BR VCTS OVC006CB
     FM170400 21006KT 4SM BR VCSH OVC008
     FM170800 25007KT 6SM BR OVC025
     FM171200 27008KT 6SM BR BKN007
     FM171700 27008KT P6SM BKN012=

USA.gov is the U.S. government's official web portal to all federal, state and local government web resources and services.